createdAt,value
2019-03-24T00:03:24.392Z,59.50
2019-03-24T00:08:30.095Z,60.20
2019-03-24T00:13:36.104Z,54.20
2019-03-24T00:18:42.124Z,58.07
2019-03-24T00:23:47.676Z,62.17
2019-03-24T00:28:54.953Z,61.47
2019-03-24T00:34:01.189Z,58.50
2019-03-24T00:39:07.371Z,62.67
2019-03-24T00:44:13.047Z,58.33
2019-03-24T00:49:19.205Z,56.63
2019-03-24T00:54:24.759Z,67.60
2019-03-24T00:59:31.496Z,55.17
2019-03-24T01:04:36.864Z,58.20
2019-03-24T01:09:42.353Z,53.87
2019-03-24T01:14:48.072Z,58.07
2019-03-24T01:19:53.704Z,58.00
2019-03-24T01:24:59.075Z,56.57
2019-03-24T01:30:05.707Z,61.87
2019-03-24T01:35:11.139Z,62.57
2019-03-24T01:40:16.744Z,59.10
2019-03-24T01:45:22.126Z,63.73
2019-03-24T01:50:27.644Z,60.70
2019-03-24T01:55:33.558Z,57.13
2019-03-24T02:00:39.170Z,63.87
2019-03-24T02:05:44.469Z,54.67
2019-03-24T02:10:50.098Z,54.10
2019-03-24T02:15:55.507Z,52.97
2019-03-24T02:21:00.792Z,61.57
2019-03-24T02:26:06.296Z,58.43
2019-03-24T02:31:11.895Z,54.50
2019-03-24T02:36:16.621Z,56.83
2019-03-24T02:41:21.695Z,62.53
2019-03-24T02:46:26.499Z,59.50
2019-03-24T02:51:31.022Z,54.37
2019-03-24T02:56:35.599Z,67.13
2019-03-24T03:01:40.025Z,62.73
2019-03-24T03:06:44.661Z,66.43
2019-03-24T03:11:49.079Z,63.70
2019-03-24T03:16:53.586Z,53.40
2019-03-24T03:21:58.107Z,62.90
2019-03-24T03:27:03.633Z,56.93
2019-03-24T03:32:09.031Z,60.43
2019-03-24T03:37:14.716Z,54.80
2019-03-24T03:42:20.315Z,60.37
2019-03-24T03:47:25.597Z,53.80
2019-03-24T03:52:31.237Z,62.87
2019-03-24T03:57:36.585Z,71.90
2019-03-24T04:02:42.762Z,58.63
2019-03-24T04:07:48.117Z,57.77
2019-03-24T04:12:56.356Z,64.17
2019-03-24T04:18:01.595Z,61.60
2019-03-24T04:23:07.338Z,67.63
2019-03-24T04:28:12.814Z,64.20
2019-03-24T04:33:18.257Z,61.50
2019-03-24T04:38:23.702Z,60.30
2019-03-24T04:43:28.899Z,66.50
2019-03-24T04:48:34.093Z,71.43
2019-03-24T04:53:39.468Z,60.47
2019-03-24T04:58:44.851Z,60.77
2019-03-24T05:03:51.185Z,53.57
2019-03-24T05:08:57.148Z,60.40
2019-03-24T05:14:02.405Z,57.03
2019-03-24T05:19:07.677Z,61.23
2019-03-24T05:24:13.177Z,60.43
2019-03-24T05:29:18.822Z,62.13
2019-03-24T05:34:24.395Z,64.13
2019-03-24T05:39:29.447Z,57.03
2019-03-24T05:44:34.988Z,57.33
2019-03-24T05:49:40.397Z,65.03
2019-03-24T05:54:45.746Z,62.97
2019-03-24T05:59:51.134Z,60.30
2019-03-24T06:04:56.874Z,67.70
2019-03-24T06:10:02.145Z,65.10
2019-03-24T06:15:08.612Z,63.33
2019-03-24T06:20:14.825Z,60.73
2019-03-24T06:25:20.258Z,66.97
2019-03-24T06:30:25.805Z,67.37
2019-03-24T06:35:31.684Z,73.87
2019-03-24T06:40:35.883Z,81.17
2019-03-24T06:45:39.957Z,79.20
2019-03-24T06:50:43.929Z,78.67
2019-03-24T06:55:49.123Z,101.17
2019-03-24T07:00:54.349Z,92.67
2019-03-24T07:06:00.091Z,93.40
2019-03-24T07:11:10.486Z,94.60
2019-03-24T07:16:12.054Z,83.97
2019-03-24T07:21:17.005Z,86.37
2019-03-24T07:26:23.130Z,88.07
2019-03-24T07:31:27.863Z,84.90
2019-03-24T07:36:32.675Z,79.03
2019-03-24T07:41:37.591Z,77.97
2019-03-24T07:46:42.486Z,77.40
2019-03-24T07:51:47.416Z,74.93
2019-03-24T07:56:51.886Z,67.20
2019-03-24T08:02:15.547Z,69.63
2019-03-24T08:07:23.001Z,73.60
2019-03-24T08:12:29.506Z,61.63
2019-03-24T08:17:36.176Z,62.10
2019-03-24T08:22:42.437Z,64.50
2019-03-24T08:27:47.995Z,65.43
2019-03-24T08:32:53.830Z,61.73
2019-03-24T08:37:59.644Z,56.40
2019-03-24T08:43:05.332Z,59.77
2019-03-24T08:48:12.848Z,58.70
2019-03-24T08:53:18.620Z,56.70
2019-03-24T08:58:24.582Z,54.47
2019-03-24T09:03:32.622Z,62.63
2019-03-24T09:08:41.870Z,55.47
2019-03-24T09:13:47.887Z,57.30
2019-03-24T09:19:04.140Z,58.43
2019-03-24T09:24:10.026Z,59.00
2019-03-24T09:29:15.469Z,54.03
2019-03-24T09:34:21.085Z,56.33
2019-03-24T09:39:26.823Z,53.20
2019-03-24T09:44:32.469Z,62.33
2019-03-24T09:49:38.271Z,58.40
2019-03-24T09:54:44.509Z,52.37
2019-03-24T09:59:50.902Z,51.03
2019-03-24T10:04:56.405Z,53.97
2019-03-24T10:10:02.894Z,54.90
2019-03-24T10:15:09.262Z,51.90
2019-03-24T10:20:16.039Z,51.10
2019-03-24T10:25:22.044Z,60.30
2019-03-24T10:30:29.480Z,56.67
2019-03-24T10:35:35.890Z,57.17
2019-03-24T10:40:42.299Z,59.13
2019-03-24T10:45:47.958Z,61.70
2019-03-24T10:50:54.137Z,55.47
2019-03-24T10:55:59.098Z,56.30
2019-03-24T11:01:04.785Z,51.53
2019-03-24T11:06:08.834Z,50.87
2019-03-24T11:11:13.639Z,52.03
2019-03-24T11:16:18.547Z,57.60
2019-03-24T11:21:22.829Z,55.27
2019-03-24T11:26:26.951Z,52.90
2019-03-24T11:31:30.946Z,56.63
2019-03-24T11:36:38.086Z,52.63
2019-03-24T11:41:43.835Z,60.27
2019-03-24T11:46:48.911Z,57.57
2019-03-24T11:52:02.400Z,52.07
2019-03-24T11:57:08.057Z,54.63
2019-03-24T12:02:13.187Z,52.77
2019-03-24T12:07:19.288Z,54.43
2019-03-24T12:12:39.965Z,53.83
2019-03-24T12:17:46.334Z,48.73
2019-03-24T12:22:54.545Z,51.07
2019-03-24T12:28:01.084Z,50.50
2019-03-24T12:33:09.571Z,56.10
2019-03-24T12:38:15.239Z,53.53
2019-03-24T12:43:20.979Z,47.10
2019-03-24T12:48:26.895Z,51.97
2019-03-24T12:53:33.689Z,53.73
2019-03-24T12:58:39.474Z,54.80
2019-03-24T13:03:45.728Z,53.80
2019-03-24T13:08:51.149Z,54.13
2019-03-24T13:13:58.347Z,53.37
2019-03-24T13:19:04.659Z,50.57
2019-03-24T13:24:10.850Z,54.83
2019-03-24T13:29:16.333Z,49.80
2019-03-24T13:34:22.513Z,54.30
2019-03-24T13:39:28.203Z,54.63
2019-03-24T13:44:33.841Z,55.70
2019-03-24T13:49:39.577Z,54.97
2019-03-24T13:54:45.537Z,48.53
2019-03-24T13:59:51.279Z,55.63
2019-03-24T14:04:56.539Z,51.13
2019-03-24T14:10:02.648Z,46.87
2019-03-24T14:15:09.939Z,43.33
2019-03-24T14:20:16.076Z,46.77
2019-03-24T14:25:21.681Z,48.47
2019-03-24T14:30:47.970Z,42.00
2019-03-24T14:35:53.893Z,43.67
2019-03-24T14:40:59.959Z,44.87
2019-03-24T14:46:06.818Z,44.80
2019-03-24T14:51:11.553Z,42.40
2019-03-24T14:56:19.039Z,45.90
2019-03-24T15:01:24.236Z,45.40
2019-03-24T15:06:28.947Z,46.27
2019-03-24T15:11:33.683Z,39.67
2019-03-24T15:16:40.133Z,43.60
2019-03-24T15:21:45.245Z,38.10
2019-03-24T15:26:50.052Z,38.63
2019-03-24T15:31:56.660Z,39.37
2019-03-24T15:37:01.653Z,38.83
2019-03-24T15:42:07.850Z,38.97
2019-03-24T15:47:13.533Z,39.73
2019-03-24T15:52:19.604Z,41.13
2019-03-24T15:57:25.542Z,42.90
2019-03-24T16:02:31.045Z,38.97
2019-03-24T16:07:37.476Z,35.20
2019-03-24T16:12:44.039Z,34.40
2019-03-24T16:17:51.892Z,37.13
2019-03-24T16:22:57.188Z,38.63
2019-03-24T16:28:04.389Z,35.20
2019-03-24T16:33:10.287Z,32.90
2019-03-24T16:38:16.021Z,30.20
2019-03-24T16:43:21.826Z,28.47
2019-03-24T16:48:36.424Z,30.20
2019-03-24T16:53:36.190Z,26.63
2019-03-24T16:58:41.997Z,25.80
2019-03-24T17:03:47.477Z,21.43
2019-03-24T17:08:53.017Z,23.60
2019-03-24T17:13:59.717Z,25.53
2019-03-24T17:19:05.919Z,23.70
2019-03-24T17:24:11.701Z,21.37
2019-03-24T17:29:18.222Z,19.60
2019-03-24T17:34:23.797Z,17.93
2019-03-24T17:39:31.892Z,17.93
2019-03-24T17:44:37.944Z,16.47
2019-03-24T17:49:44.822Z,18.77
2019-03-24T17:54:51.300Z,19.30
2019-03-24T17:59:56.760Z,15.70
2019-03-24T18:05:02.885Z,16.67
2019-03-24T18:10:09.650Z,18.37
2019-03-24T18:15:16.023Z,18.27
2019-03-24T18:20:31.504Z,18.73
2019-03-24T18:25:37.370Z,18.50
2019-03-24T18:30:42.901Z,22.93
2019-03-24T18:35:50.678Z,24.33
2019-03-24T18:40:56.757Z,23.63
2019-03-24T18:46:02.535Z,25.33
2019-03-24T18:51:08.872Z,29.77
2019-03-24T18:56:14.729Z,28.73
2019-03-24T19:01:19.605Z,29.53
2019-03-24T19:06:24.144Z,21.90
2019-03-24T19:11:28.860Z,22.17
2019-03-24T19:16:34.122Z,24.07
2019-03-24T19:21:38.914Z,26.43
2019-03-24T19:26:44.095Z,30.93
2019-03-24T19:31:49.227Z,26.20
2019-03-24T19:36:55.705Z,28.43
2019-03-24T19:42:01.474Z,28.23
2019-03-24T19:47:08.077Z,29.77
2019-03-24T19:52:13.545Z,31.07
2019-03-24T19:57:19.249Z,29.40
2019-03-24T20:02:24.012Z,31.50
2019-03-24T20:07:29.722Z,32.37
2019-03-24T20:12:35.816Z,31.20
2019-03-24T20:17:42.621Z,29.27
2019-03-24T20:22:56.306Z,35.93
2019-03-24T20:27:57.921Z,30.17
2019-03-24T20:33:03.365Z,31.53
2019-03-24T20:38:09.282Z,35.00
2019-03-24T20:43:15.405Z,40.67
2019-03-24T20:48:21.918Z,39.93
2019-03-24T20:53:27.715Z,35.37
2019-03-24T20:58:33.778Z,42.83
2019-03-24T21:03:40.154Z,43.17
2019-03-24T21:08:46.038Z,38.97
2019-03-24T21:13:52.094Z,39.27
2019-03-24T21:18:59.568Z,41.57
2019-03-24T21:24:05.476Z,44.80
2019-03-24T21:29:11.304Z,40.30
2019-03-24T21:34:16.872Z,40.07
2019-03-24T21:39:22.744Z,38.40
2019-03-24T21:44:28.324Z,39.57
2019-03-24T21:49:34.117Z,38.80
2019-03-24T21:54:41.158Z,39.77
2019-03-24T21:59:47.087Z,37.20
2019-03-24T22:04:52.712Z,37.63
2019-03-24T22:10:01.408Z,40.70
2019-03-24T22:15:08.008Z,37.30
2019-03-24T22:20:14.575Z,39.53
2019-03-24T22:25:20.452Z,42.43
2019-03-24T22:30:26.256Z,45.93
2019-03-24T22:35:31.936Z,38.90
2019-03-24T22:40:37.553Z,43.10
2019-03-24T22:45:43.594Z,44.53
2019-03-24T22:50:49.295Z,39.97
2019-03-24T22:55:54.910Z,44.23
2019-03-24T23:00:58.911Z,43.50
2019-03-24T23:06:04.107Z,46.20
2019-03-24T23:11:08.956Z,52.90
2019-03-24T23:16:14.038Z,42.93
2019-03-24T23:21:18.964Z,36.03
2019-03-24T23:26:23.864Z,47.97
2019-03-24T23:31:28.546Z,41.80
2019-03-24T23:36:33.048Z,38.80
2019-03-24T23:41:37.600Z,35.10
2019-03-24T23:46:43.208Z,39.00
2019-03-24T23:51:48.776Z,35.13
2019-03-24T23:56:54.472Z,37.00
